This demonstration page uses our WeatherBlox Daily Observations layout. Learn more.

Left ArrowRight Arrow

53.62937, 11.41316

Hourly Observations for January 3, 2018

Temp ( °F °C ) Dew Point ( °F °C ) Humidity (%) Winds ( mph kmh ) Pressure ( in mb ) Visibility ( mi km ) Precip ( " mm )
5:20 am 05:20 Cloudy with Light Rain 39 4 37 3 93 93 SSE 17 28 29.23 990 30 48 N/A
5:50 am 05:50 Cloudy with Light Rain 39 4 37 3 93 93 SSE 16 26 29.18 988 30 48 N/A
6:20 am 06:20 Cloudy with Light Rain 39 4 37 3 93 93 SSE 18 30 29.15 987 30 48 N/A
6:50 am 06:50 Cloudy with Light Rain 39 4 37 3 93 93 SSE 20 31 29.12 986 3 5 N/A
7:20 am 07:20 Cloudy with Light Rain 39 4 37 3 93 93 SSE 17 28 29.06 984 3 4 N/A
7:50 am 07:50 Cloudy with Light Rain 39 4 39 4 100 100 SSE 21 33 29.00 982 30 48 N/A
8:20 am 08:20 Cloudy with Drizzle 39 4 39 4 100 100 SSE 22 35 29.00 982 30 48 N/A
8:50 am 08:50 Cloudy 41 5 39 4 93 93 SSE 20 31 28.97 981 30 48 N/A
9:20 am 09:20 Cloudy 41 5 39 4 93 93 S 16 26 28.94 980 30 48 N/A
9:50 am 09:50 Cloudy 43 6 41 5 93 93 S 17 28 28.94 980 30 48 N/A
10:20 am 10:20 Mostly Cloudy 43 6 41 5 93 93 SSW 18 30 28.94 980 30 48 N/A
10:50 am 10:50 Mostly Cloudy 43 6 41 5 93 93 SSW 14 22 28.94 980 30 48 N/A
11:20 am 11:20 Mostly Cloudy with Light Rain 45 7 41 5 87 87 SSW 14 22 28.94 980 30 48 N/A
11:50 am 11:50 Cloudy with Drizzle 45 7 43 6 93 93 SW 14 22 28.94 980 30 48 N/A
12:20 pm 12:20 Mostly Cloudy 45 7 41 5 87 87 SW 10 17 28.94 980 30 48 N/A
12:50 pm 12:50 Cloudy 45 7 41 5 87 87 SW 17 28 28.97 981 30 48 N/A
1:20 pm 13:20 Mostly Cloudy with Drizzle 43 6 39 4 87 87 SW 21 33 28.97 981 30 48 N/A
1:50 pm 13:50 Mostly Cloudy 41 5 39 4 93 93 WSW 20 31 28.97 981 30 48 N/A
2:20 pm 14:20 Mostly Cloudy 43 6 39 4 87 87 SW 14 22 28.97 981 30 48 N/A
2:50 pm 14:50 Mostly Cloudy with Light Rain 43 6 39 4 87 87 SSW 14 22 28.97 981 30 48 N/A
3:20 pm 15:20 Mostly Cloudy with Drizzle 43 6 39 4 87 87 S 13 20 28.97 981 30 48 N/A
3:50 pm 15:50 Mostly Cloudy with Light Rain 43 6 39 4 87 87 SSW 17 28 28.97 981 30 48 N/A
4:20 pm 16:20 Mostly Cloudy with Light Rain 41 5 39 4 93 93 SSW 18 30 28.94 980 30 48 N/A
4:50 pm 16:50 Cloudy with Light Rain 41 5 39 4 93 93 SSW 20 31 28.94 980 30 48 N/A
5:20 pm 17:20 Mostly Cloudy 43 6 41 5 93 93 SSW 21 33 28.94 980 30 48 N/A
5:50 pm 17:50 Mostly Cloudy with Light Rain 43 6 39 4 87 87 SW 25 41 28.97 981 30 48 N/A

Powered by AerisWeather